INU weather

Nauru International Airport
Yaren District, Yaren, Nauru

Public forecast

Using degrees Celsius for public forecast. Weather courtesy of forecast.io.

Closest aviation weather report (METAR) to Nauru International Airport

Closest report is Bonriki International Airport, 391.4 nm (724.9 km) ENE. Retrieved 2019/10/14 12:00 UTC (19 minutes ago):

NGTA 141200Z 14004KT 9999 SCT020 SCT300 29/24 Q1010

Aviation forecast (TAF) for Nauru International Airport

Forecast is more than 12 hours old.

Retrieved 2019-10-14 00:00 UTC (12 hours ago):

TAF ANYN 132230Z 1400/1424 11008KT 9999 -SHRA SCT018 BKN040 PROB30 INTER 1400/1406 4000 SHRA BKN008 T 31 31 30 28 Q 1009 1007 1008 1010